weather.gov     
National Weather Service

Terminal Aerodrome Forecast
NWS Homepage
This page is being discontinued on March 12, 2014.
The same data is available at this site. Please update your bookmarks.
Thank you, and we apologize for the inconvenience.
Please send an email to SR-SRH.Webmaster@noaa.gov with any concerns.


Current Version
Previous Version:    01  02  03  04  05  06  07  08  09  10  11  12  13  14  15  16  17  18  19  20  21  22  23  
[Printable]
245
FTPA31 PHFO 210500 AAA
TAFJRF
TAF AMD
PHJR 210521Z 2105/2124 05009G15KT P6SM FEW030 SCT045
      TEMPO 2106/2108 SCT020 BKN035
     FM210800 08009G15KT P6SM SCT030 BKN045
     FM211800 05012G20KT P6SM FEW030 SCT045=


U.S. Dept. of Commerce
NOAA National Weather Service
1325 East West Highway
Silver Spring, MD 20910
E-mail: w-nws.webmaster@noaa.gov
Page last modified: May 16, 2007
NATIONAL WEATHER SERVICE: for Safety, for Work, for Fun - FOR LIFE